createdAt,value
2024-03-26T00:02:10.508Z,69.45
2024-03-26T00:03:18.869Z,68.96
2024-03-26T00:03:32.057Z,68.75
2024-03-26T00:04:52.053Z,69.38
2024-03-26T00:06:14.480Z,69.25
2024-03-26T00:07:44.399Z,69.23
2024-03-26T00:09:04.078Z,69.34
2024-03-26T00:10:47.310Z,69.54
2024-03-26T00:12:13.776Z,69.47
2024-03-26T00:13:37.426Z,68.84
2024-03-26T00:15:12.291Z,68.79
2024-03-26T00:16:38.380Z,68.74
2024-03-26T00:17:58.232Z,68.84
2024-03-26T00:19:24.932Z,68.96
2024-03-26T00:21:45.142Z,68.92
2024-03-26T00:23:05.134Z,68.90
2024-03-26T00:24:25.040Z,68.98
2024-03-26T00:25:49.106Z,68.96
2024-03-26T00:27:12.107Z,68.93
2024-03-26T00:28:44.042Z,69.47
2024-03-26T00:32:27.092Z,69.66
2024-03-26T00:33:47.415Z,69.08
2024-03-26T00:35:09.775Z,69.01
2024-03-26T00:36:34.084Z,69.72
2024-03-26T00:38:20.280Z,69.51
2024-03-26T00:39:41.286Z,69.31
2024-03-26T00:41:28.683Z,68.80
2024-03-26T00:42:58.496Z,69.03
2024-03-26T00:44:19.603Z,69.03
2024-03-26T00:46:02.803Z,68.47
2024-03-26T00:47:35.423Z,68.66
2024-03-26T00:49:17.068Z,69.05
2024-03-26T00:50:37.731Z,69.00
2024-03-26T00:52:11.686Z,69.41
2024-03-26T00:55:39.450Z,68.96
2024-03-26T00:56:11.313Z,69.52
2024-03-26T00:56:59.260Z,69.13
2024-03-26T00:58:19.316Z,69.74
2024-03-26T00:59:45.724Z,69.83
2024-03-26T01:01:12.680Z,70.11
2024-03-26T01:02:37.855Z,70.40
2024-03-26T01:04:16.033Z,70.12
2024-03-26T01:05:51.963Z,70.42
2024-03-26T01:07:11.527Z,70.32
2024-03-26T01:08:37.981Z,70.40
2024-03-26T01:10:04.201Z,70.45
2024-03-26T01:11:52.564Z,70.92
2024-03-26T01:13:16.242Z,71.05
2024-03-26T01:14:36.479Z,71.62
2024-03-26T01:16:52.110Z,70.86
2024-03-26T01:18:19.782Z,70.56
2024-03-26T01:19:46.623Z,70.51
2024-03-26T01:21:13.252Z,70.49
2024-03-26T01:22:56.920Z,69.33
2024-03-26T01:24:43.016Z,69.76
2024-03-26T01:26:13.310Z,70.12
2024-03-26T01:27:53.295Z,70.18
2024-03-26T01:29:40.396Z,70.03
2024-03-26T01:31:04.017Z,69.91
2024-03-26T01:32:24.352Z,69.88
2024-03-26T01:35:41.624Z,69.07
2024-03-26T01:37:13.515Z,70.31
2024-03-26T01:38:42.725Z,70.33
2024-03-26T01:41:12.283Z,70.30
2024-03-26T01:43:22.511Z,69.93
2024-03-26T01:44:37.557Z,70.56
2024-03-26T01:46:15.460Z,70.92
2024-03-26T01:47:48.214Z,70.99
2024-03-26T01:51:21.423Z,70.09
2024-03-26T01:52:46.777Z,69.81
2024-03-26T01:54:11.091Z,70.49
2024-03-26T01:55:34.930Z,70.93
2024-03-26T01:57:00.318Z,71.38
2024-03-26T01:58:27.264Z,71.78
2024-03-26T02:00:21.151Z,71.26
2024-03-26T02:01:41.347Z,71.92
2024-03-26T02:03:02.209Z,71.72
2024-03-26T02:04:22.542Z,71.78
2024-03-26T02:06:21.535Z,71.53
2024-03-26T02:07:45.702Z,71.96
2024-03-26T02:09:08.072Z,71.67
2024-03-26T02:10:27.948Z,71.64
2024-03-26T02:11:59.595Z,70.88
2024-03-26T02:13:35.626Z,70.87
2024-03-26T02:15:29.202Z,71.40
2024-03-26T02:16:58.298Z,71.02
2024-03-26T02:18:19.215Z,71.50
2024-03-26T02:19:39.084Z,71.26
2024-03-26T02:21:30.451Z,70.79
2024-03-26T02:22:59.426Z,71.09
2024-03-26T02:24:22.393Z,70.52
2024-03-26T02:25:46.473Z,71.00
2024-03-26T02:27:16.593Z,70.98
2024-03-26T02:28:46.778Z,70.71
2024-03-26T02:30:16.060Z,70.74
2024-03-26T02:31:43.856Z,71.36
2024-03-26T02:33:06.377Z,71.09
2024-03-26T02:34:44.890Z,71.43
2024-03-26T02:36:08.594Z,70.51
2024-03-26T02:37:28.154Z,70.54
2024-03-26T02:39:17.780Z,71.07
2024-03-26T02:40:37.600Z,71.22
2024-03-26T02:42:12.148Z,71.27
2024-03-26T02:43:38.411Z,70.99
2024-03-26T02:45:13.907Z,70.77
2024-03-26T02:49:02.948Z,70.88
2024-03-26T02:50:50.547Z,71.50
2024-03-26T02:52:12.488Z,71.29
2024-03-26T02:53:48.235Z,71.60
2024-03-26T02:55:50.877Z,70.67
2024-03-26T02:57:12.574Z,71.10
2024-03-26T02:58:38.915Z,71.33
2024-03-26T03:00:14.500Z,71.21
2024-03-26T03:01:57.095Z,71.33
2024-03-26T03:05:25.704Z,71.24
2024-03-26T03:05:25.780Z,71.23
2024-03-26T03:06:57.849Z,70.88
2024-03-26T03:09:07.593Z,70.47
2024-03-26T03:10:27.930Z,70.71
2024-03-26T03:11:57.316Z,70.78
2024-03-26T03:13:17.237Z,71.43
2024-03-26T03:14:40.262Z,71.09
2024-03-26T03:16:04.286Z,70.95
2024-03-26T03:17:26.355Z,70.40
2024-03-26T03:18:58.189Z,71.30
2024-03-26T03:20:28.340Z,70.65
2024-03-26T03:21:48.637Z,70.72
2024-03-26T03:23:19.500Z,71.50
2024-03-26T03:24:42.971Z,70.87
2024-03-26T03:26:09.540Z,70.92
2024-03-26T03:27:40.266Z,70.95
2024-03-26T03:29:34.871Z,70.91
2024-03-26T03:30:58.268Z,71.19
2024-03-26T03:32:18.955Z,71.40
2024-03-26T03:33:48.805Z,71.36
2024-03-26T03:35:12.641Z,71.37
2024-03-26T03:36:32.191Z,71.09
2024-03-26T03:41:01.019Z,71.44
2024-03-26T03:42:28.336Z,71.19
2024-03-26T03:44:23.320Z,71.07
2024-03-26T03:45:47.821Z,71.45
2024-03-26T03:47:14.435Z,71.51
2024-03-26T03:48:38.027Z,71.17
2024-03-26T03:50:10.184Z,70.84
2024-03-26T03:51:43.052Z,70.67
2024-03-26T03:53:02.853Z,70.96
2024-03-26T03:54:25.996Z,70.75
2024-03-26T03:55:59.243Z,70.63
2024-03-26T03:57:22.212Z,71.35
2024-03-26T03:58:43.492Z,71.33
2024-03-26T04:00:20.948Z,71.19
2024-03-26T04:01:53.708Z,71.73
2024-03-26T04:03:13.320Z,71.91
2024-03-26T04:04:55.728Z,71.70
2024-03-26T04:06:25.483Z,72.09
2024-03-26T04:11:18.749Z,72.24
2024-03-26T04:13:12.018Z,71.59
2024-03-26T04:14:41.338Z,71.78
2024-03-26T04:16:15.164Z,72.22
2024-03-26T04:17:38.668Z,71.80
2024-03-26T04:19:02.015Z,72.14
2024-03-26T04:20:33.706Z,71.72
2024-03-26T04:21:53.263Z,71.59
2024-03-26T04:23:16.637Z,71.75
2024-03-26T04:24:45.607Z,71.83
2024-03-26T04:26:53.198Z,71.44
2024-03-26T04:28:39.193Z,72.09
2024-03-26T04:30:01.848Z,72.03
2024-03-26T04:31:25.701Z,72.66
2024-03-26T04:32:57.099Z,72.62
2024-03-26T04:34:18.227Z,72.57
2024-03-26T04:37:46.534Z,72.40
2024-03-26T04:39:09.322Z,72.78
2024-03-26T04:40:31.907Z,72.45
2024-03-26T04:42:15.428Z,72.40
2024-03-26T04:43:36.602Z,72.25
2024-03-26T04:44:56.004Z,71.97
2024-03-26T04:46:15.846Z,72.08
2024-03-26T04:48:09.919Z,71.99
2024-03-26T04:49:29.505Z,71.84
2024-03-26T04:50:49.692Z,71.59
2024-03-26T04:52:46.893Z,71.59
2024-03-26T04:54:10.866Z,71.75
2024-03-26T04:55:32.800Z,71.53
2024-03-26T04:57:15.782Z,71.86
2024-03-26T04:59:12.883Z,72.13
2024-03-26T05:01:22.418Z,72.62
2024-03-26T05:03:20.885Z,73.10
2024-03-26T05:04:47.198Z,72.65
2024-03-26T05:06:08.517Z,73.10
2024-03-26T05:07:30.118Z,72.40
2024-03-26T05:09:14.164Z,73.00
2024-03-26T05:10:34.140Z,72.65
2024-03-26T05:11:55.240Z,72.86
2024-03-26T05:13:30.964Z,72.49
2024-03-26T05:15:18.304Z,72.23
2024-03-26T05:16:59.649Z,73.21
2024-03-26T05:18:31.910Z,72.57
2024-03-26T05:21:31.751Z,72.03
2024-03-26T05:21:51.227Z,72.54
2024-03-26T05:23:10.951Z,72.45
2024-03-26T05:24:35.393Z,72.53
2024-03-26T05:25:58.804Z,72.75
2024-03-26T05:27:24.214Z,72.63
2024-03-26T05:28:49.059Z,72.45
2024-03-26T05:30:33.662Z,72.37
2024-03-26T05:31:56.896Z,72.62
2024-03-26T05:33:28.353Z,73.43
2024-03-26T05:34:52.376Z,73.21
2024-03-26T05:36:20.581Z,73.42
2024-03-26T05:37:48.138Z,72.57
2024-03-26T05:39:11.729Z,73.21
2024-03-26T05:40:31.753Z,72.60
2024-03-26T05:41:51.983Z,73.05
2024-03-26T05:43:11.353Z,73.62
2024-03-26T05:44:30.540Z,73.22
2024-03-26T05:45:53.654Z,72.39
2024-03-26T05:47:15.044Z,73.39
2024-03-26T05:48:35.216Z,72.80
2024-03-26T05:49:57.952Z,72.37
2024-03-26T05:51:18.732Z,71.88
2024-03-26T05:52:42.908Z,72.68
2024-03-26T05:54:03.864Z,72.19
2024-03-26T05:55:24.592Z,72.12
2024-03-26T05:56:51.648Z,71.88
2024-03-26T05:58:12.449Z,71.84
2024-03-26T05:59:32.894Z,72.33
2024-03-26T06:00:54.918Z,72.29
2024-03-26T06:02:15.652Z,72.08
2024-03-26T06:03:40.545Z,72.04
2024-03-26T06:05:01.552Z,72.37
2024-03-26T06:06:23.271Z,71.55
2024-03-26T06:07:47.113Z,71.70
2024-03-26T06:09:08.100Z,71.50
2024-03-26T06:10:28.997Z,71.11
2024-03-26T06:11:53.085Z,70.75
2024-03-26T06:13:22.740Z,70.11
2024-03-26T06:14:43.678Z,70.63
2024-03-26T06:16:09.054Z,70.61
2024-03-26T06:17:32.626Z,70.39
2024-03-26T06:18:58.434Z,69.95
2024-03-26T06:20:22.504Z,70.13
2024-03-26T06:21:43.332Z,70.54
2024-03-26T06:23:05.772Z,69.39
2024-03-26T06:24:26.441Z,69.97
2024-03-26T06:25:46.505Z,69.09
2024-03-26T06:27:10.504Z,68.84
2024-03-26T06:28:32.536Z,69.53
2024-03-26T06:29:56.397Z,69.14
2024-03-26T06:31:17.255Z,69.00
2024-03-26T06:32:37.141Z,68.52
2024-03-26T06:33:57.427Z,68.77
2024-03-26T06:35:17.785Z,68.39
2024-03-26T06:36:38.880Z,68.33
2024-03-26T06:38:00.141Z,67.29
2024-03-26T06:39:21.358Z,67.93
2024-03-26T06:40:42.108Z,67.23
2024-03-26T06:42:02.886Z,67.31
2024-03-26T06:43:24.596Z,67.33
2024-03-26T06:44:45.047Z,66.90
2024-03-26T06:46:07.623Z,66.42
2024-03-26T06:47:28.034Z,66.42
2024-03-26T06:48:53.740Z,67.02
2024-03-26T06:50:15.523Z,67.14
2024-03-26T06:51:36.138Z,66.23
2024-03-26T06:53:06.048Z,66.28
2024-03-26T06:54:26.301Z,65.68
2024-03-26T06:55:46.121Z,65.39
2024-03-26T06:57:06.546Z,64.45
2024-03-26T06:58:27.077Z,64.50
2024-03-26T06:59:47.360Z,64.15
2024-03-26T07:01:07.607Z,64.86
2024-03-26T07:02:28.096Z,64.03
2024-03-26T07:03:53.177Z,63.92
2024-03-26T07:05:16.908Z,63.83
2024-03-26T07:06:46.090Z,62.89
2024-03-26T07:08:09.531Z,63.89
2024-03-26T07:09:39.259Z,64.09
2024-03-26T07:11:34.631Z,63.96
2024-03-26T07:12:58.990Z,64.43
2024-03-26T07:14:26.857Z,64.21
2024-03-26T07:15:52.141Z,63.46
2024-03-26T07:17:12.957Z,62.88
2024-03-26T07:18:34.826Z,62.83
2024-03-26T07:19:55.123Z,62.96
2024-03-26T07:21:16.599Z,61.82
2024-03-26T07:22:38.751Z,61.86
2024-03-26T07:24:01.949Z,62.17
2024-03-26T07:25:24.429Z,61.61
2024-03-26T07:26:48.391Z,61.75
2024-03-26T07:28:08.523Z,62.09
2024-03-26T07:29:29.727Z,61.70
2024-03-26T07:30:50.259Z,60.88
2024-03-26T07:32:15.016Z,60.18
2024-03-26T07:33:36.714Z,60.51
2024-03-26T07:34:56.592Z,60.99
2024-03-26T07:36:17.672Z,60.49
2024-03-26T07:37:37.558Z,61.16
2024-03-26T07:39:01.352Z,60.13
2024-03-26T07:40:43.838Z,60.69
2024-03-26T07:42:04.570Z,60.33
2024-03-26T07:43:36.487Z,60.19
2024-03-26T07:45:21.006Z,59.07
2024-03-26T07:49:17.473Z,58.60
2024-03-26T07:50:50.344Z,58.12
2024-03-26T07:52:20.441Z,58.66
2024-03-26T07:53:41.443Z,57.17
2024-03-26T07:55:12.897Z,58.07
2024-03-26T07:56:36.121Z,57.65
2024-03-26T07:57:57.490Z,56.90
2024-03-26T07:59:17.605Z,56.98
2024-03-26T08:00:37.909Z,56.83
2024-03-26T08:01:58.294Z,56.37
2024-03-26T08:03:18.579Z,57.04
2024-03-26T08:04:41.662Z,56.44
2024-03-26T08:06:03.916Z,56.40
2024-03-26T08:07:24.220Z,56.47
2024-03-26T08:08:50.531Z,55.53
2024-03-26T08:10:12.251Z,56.46
2024-03-26T08:11:32.882Z,55.21
2024-03-26T08:12:53.496Z,54.88
2024-03-26T08:14:15.196Z,55.52
2024-03-26T08:15:35.973Z,53.85
2024-03-26T08:16:57.078Z,53.83
2024-03-26T08:18:19.031Z,53.27
2024-03-26T08:19:41.617Z,53.23
2024-03-26T08:21:02.774Z,52.76
2024-03-26T08:22:23.345Z,52.09
2024-03-26T08:23:44.321Z,52.41
2024-03-26T08:25:05.747Z,52.69
2024-03-26T08:26:29.246Z,53.07
2024-03-26T08:27:52.295Z,51.08
2024-03-26T08:29:12.505Z,52.16
2024-03-26T08:30:35.713Z,51.85
2024-03-26T08:31:59.822Z,50.93
2024-03-26T08:33:24.900Z,51.92
2024-03-26T08:34:45.441Z,51.90
2024-03-26T08:36:12.662Z,52.03
2024-03-26T08:37:35.492Z,50.90
2024-03-26T08:39:01.902Z,51.08
2024-03-26T08:42:22.300Z,49.26
2024-03-26T08:44:04.198Z,50.15
2024-03-26T08:45:25.280Z,50.32
2024-03-26T08:46:47.640Z,49.40
2024-03-26T08:48:15.061Z,48.75
2024-03-26T08:49:39.245Z,48.39
2024-03-26T08:51:00.039Z,47.14
2024-03-26T08:52:20.240Z,47.63
2024-03-26T08:53:40.549Z,47.38
2024-03-26T08:55:21.861Z,48.34
2024-03-26T08:56:46.282Z,47.59
2024-03-26T08:58:07.552Z,46.67
2024-03-26T08:59:28.446Z,46.70
2024-03-26T09:00:52.454Z,47.29
2024-03-26T09:02:16.928Z,46.74
2024-03-26T09:03:38.023Z,46.23
2024-03-26T09:05:08.607Z,44.91
2024-03-26T09:06:29.704Z,45.08
2024-03-26T09:07:50.738Z,44.82
2024-03-26T09:09:11.426Z,45.62
2024-03-26T09:10:32.124Z,43.75
2024-03-26T09:11:53.423Z,44.86
2024-03-26T09:13:17.316Z,43.26
2024-03-26T09:14:43.404Z,44.25
2024-03-26T09:16:04.034Z,44.22
2024-03-26T09:17:24.723Z,43.87
2024-03-26T09:18:49.663Z,44.19
2024-03-26T09:20:10.766Z,42.58
2024-03-26T09:21:33.407Z,43.21
2024-03-26T09:22:54.232Z,42.96
2024-03-26T09:25:00.730Z,40.57
2024-03-26T09:25:56.505Z,40.44
2024-03-26T09:27:17.555Z,41.02
2024-03-26T09:28:41.948Z,41.69
2024-03-26T09:30:07.064Z,42.18
2024-03-26T09:31:33.877Z,40.35
2024-03-26T09:32:54.733Z,39.28
2024-03-26T09:34:21.428Z,40.47
2024-03-26T09:35:42.220Z,40.25
2024-03-26T09:37:03.418Z,39.80
2024-03-26T09:38:47.443Z,40.33
2024-03-26T09:40:25.966Z,39.63
2024-03-26T09:41:46.665Z,39.54
2024-03-26T09:43:10.105Z,38.83
2024-03-26T09:45:05.557Z,39.21
2024-03-26T09:46:26.394Z,38.13
2024-03-26T09:48:23.935Z,38.11
2024-03-26T09:50:13.476Z,37.55
2024-03-26T09:51:53.014Z,37.42
2024-03-26T09:53:34.843Z,36.44
2024-03-26T09:55:21.338Z,37.66
2024-03-26T09:56:42.593Z,35.46
2024-03-26T09:58:12.906Z,36.03
2024-03-26T09:59:34.453Z,35.28
2024-03-26T10:00:56.177Z,34.91
2024-03-26T10:02:22.211Z,34.11
2024-03-26T10:03:49.514Z,34.71
2024-03-26T10:05:16.608Z,35.63
2024-03-26T10:06:38.328Z,34.04
2024-03-26T10:07:59.780Z,33.38
2024-03-26T10:09:43.984Z,33.04
2024-03-26T10:11:06.640Z,34.41
2024-03-26T10:12:29.745Z,33.36
2024-03-26T10:13:53.836Z,33.96
2024-03-26T10:15:55.300Z,32.76
2024-03-26T10:17:30.022Z,32.50
2024-03-26T10:18:54.043Z,33.07
2024-03-26T10:20:19.149Z,32.03
2024-03-26T10:21:49.476Z,31.46
2024-03-26T10:23:12.961Z,30.55
2024-03-26T10:24:38.764Z,28.99
2024-03-26T10:26:03.717Z,29.21
2024-03-26T10:27:24.769Z,30.78
2024-03-26T10:28:51.029Z,30.71
2024-03-26T10:30:11.994Z,31.33
2024-03-26T10:31:35.688Z,30.17
2024-03-26T10:32:57.865Z,30.39
2024-03-26T10:34:25.252Z,29.66
2024-03-26T10:35:54.829Z,29.14
2024-03-26T10:37:24.743Z,29.21
2024-03-26T10:38:53.939Z,29.44
2024-03-26T10:40:27.055Z,29.38
2024-03-26T10:42:03.703Z,28.07
2024-03-26T10:43:58.671Z,28.17
2024-03-26T10:45:34.149Z,28.07
2024-03-26T10:47:10.924Z,27.92
2024-03-26T10:48:41.847Z,27.82
2024-03-26T10:50:11.205Z,28.20
2024-03-26T10:52:04.711Z,27.76
2024-03-26T10:53:26.361Z,27.48
2024-03-26T10:54:49.807Z,28.04
2024-03-26T10:56:52.898Z,26.04
2024-03-26T10:57:53.587Z,25.67
2024-03-26T10:59:41.513Z,25.82
2024-03-26T11:01:04.493Z,25.05
2024-03-26T11:02:30.625Z,26.24
2024-03-26T11:03:53.172Z,25.81
2024-03-26T11:05:17.242Z,25.16
2024-03-26T11:06:39.493Z,25.52
2024-03-26T11:08:06.205Z,25.44
2024-03-26T11:09:30.319Z,25.29
2024-03-26T11:11:18.652Z,24.27
2024-03-26T11:12:41.178Z,24.15
2024-03-26T11:14:04.358Z,25.09
2024-03-26T11:15:32.430Z,24.46
2024-03-26T11:16:53.006Z,25.21
2024-03-26T11:20:18.348Z,24.38
2024-03-26T11:21:46.357Z,25.00
2024-03-26T11:23:10.229Z,25.07
2024-03-26T11:24:35.535Z,24.43
2024-03-26T11:25:56.178Z,24.80
2024-03-26T11:27:17.564Z,25.13
2024-03-26T11:28:39.273Z,24.32
2024-03-26T11:30:00.481Z,24.91
2024-03-26T11:31:21.754Z,24.95
2024-03-26T11:32:43.371Z,23.87
2024-03-26T11:34:05.348Z,23.04
2024-03-26T11:35:27.732Z,23.75
2024-03-26T11:36:48.029Z,23.42
2024-03-26T11:38:08.617Z,23.93
2024-03-26T11:39:29.509Z,23.63
2024-03-26T11:40:51.459Z,23.88
2024-03-26T11:42:17.857Z,23.54
2024-03-26T11:43:38.854Z,22.78
2024-03-26T11:45:12.347Z,23.09
2024-03-26T11:46:35.042Z,22.57
2024-03-26T11:47:56.576Z,23.28
2024-03-26T11:49:17.552Z,23.38
2024-03-26T11:50:38.273Z,23.51
2024-03-26T11:51:59.232Z,23.37
2024-03-26T11:53:19.758Z,23.62
2024-03-26T11:54:40.856Z,23.33
2024-03-26T11:56:01.476Z,22.63
2024-03-26T11:57:22.118Z,21.79
2024-03-26T11:58:42.452Z,21.70
2024-03-26T12:00:05.206Z,21.31
2024-03-26T12:01:25.667Z,20.70
2024-03-26T12:02:46.991Z,21.47
2024-03-26T12:04:08.866Z,20.99
2024-03-26T12:05:29.800Z,21.49
2024-03-26T12:06:49.650Z,20.87
2024-03-26T12:08:11.088Z,20.94
2024-03-26T12:09:32.863Z,21.31
2024-03-26T12:10:54.421Z,21.62
2024-03-26T12:12:16.581Z,22.80
2024-03-26T12:13:48.667Z,22.82
2024-03-26T12:15:13.527Z,23.69
2024-03-26T12:16:34.337Z,24.12
2024-03-26T12:17:55.454Z,23.54
2024-03-26T12:19:17.368Z,22.58
2024-03-26T12:20:38.351Z,22.34
2024-03-26T12:21:58.753Z,22.25
2024-03-26T12:23:24.979Z,21.62
2024-03-26T12:24:50.692Z,21.12
2024-03-26T12:26:11.447Z,20.63
2024-03-26T12:27:32.253Z,20.33
2024-03-26T12:28:52.775Z,20.55
2024-03-26T12:30:14.230Z,20.55
2024-03-26T12:31:37.046Z,20.08
2024-03-26T12:33:01.716Z,19.83
2024-03-26T12:34:23.227Z,20.05
2024-03-26T12:35:44.536Z,20.61
2024-03-26T12:37:05.853Z,20.14
2024-03-26T12:38:26.870Z,19.83
2024-03-26T12:39:47.106Z,19.65
2024-03-26T12:41:08.659Z,20.55
2024-03-26T12:42:29.833Z,20.86
2024-03-26T12:43:52.788Z,20.72
2024-03-26T12:45:14.819Z,21.22
2024-03-26T12:46:34.938Z,21.01
2024-03-26T12:47:56.368Z,21.31
2024-03-26T12:49:20.634Z,20.91
2024-03-26T12:50:41.869Z,21.33
2024-03-26T12:52:03.270Z,20.81
2024-03-26T12:53:25.384Z,20.71
2024-03-26T12:54:45.909Z,20.80
2024-03-26T12:56:07.160Z,20.10
2024-03-26T12:57:28.563Z,20.58
2024-03-26T12:58:49.362Z,19.84
2024-03-26T13:00:10.575Z,19.91
2024-03-26T13:01:32.619Z,20.19
2024-03-26T13:02:53.919Z,19.94
2024-03-26T13:04:15.212Z,19.25
2024-03-26T13:05:36.433Z,19.75
2024-03-26T13:06:57.604Z,19.97
2024-03-26T13:08:17.488Z,19.85
2024-03-26T13:09:38.427Z,19.54
2024-03-26T13:11:03.425Z,19.26
2024-03-26T13:12:24.617Z,19.60
2024-03-26T13:13:48.826Z,18.99
2024-03-26T13:15:12.185Z,18.73
2024-03-26T13:16:32.927Z,18.59
2024-03-26T13:17:54.103Z,18.47
2024-03-26T13:19:18.695Z,18.09
2024-03-26T13:20:42.860Z,17.90
2024-03-26T13:22:05.084Z,17.79
2024-03-26T13:23:26.698Z,17.24
2024-03-26T13:24:48.693Z,17.25
2024-03-26T13:26:10.460Z,16.95
2024-03-26T13:27:31.730Z,17.39
2024-03-26T13:28:52.944Z,16.91
2024-03-26T13:30:15.390Z,17.56
2024-03-26T13:31:41.647Z,17.21
2024-03-26T13:33:02.669Z,16.58
2024-03-26T13:34:23.907Z,16.54
2024-03-26T13:35:44.479Z,16.37
2024-03-26T13:37:07.265Z,15.94
2024-03-26T13:38:30.696Z,15.91
2024-03-26T13:39:50.664Z,16.23
2024-03-26T13:41:11.958Z,16.15
2024-03-26T13:42:33.486Z,15.38
2024-03-26T13:43:55.392Z,15.91
2024-03-26T13:45:17.363Z,15.75
2024-03-26T13:46:38.522Z,15.29
2024-03-26T13:47:59.179Z,15.86
2024-03-26T13:49:20.389Z,15.92
2024-03-26T13:50:43.807Z,15.95
2024-03-26T13:52:04.804Z,15.83
2024-03-26T13:53:26.384Z,15.27
2024-03-26T13:54:48.582Z,15.63
2024-03-26T13:56:11.039Z,15.60
2024-03-26T13:57:32.280Z,15.98
2024-03-26T13:58:56.672Z,16.00
2024-03-26T14:00:17.515Z,16.61
2024-03-26T14:01:40.698Z,16.45
2024-03-26T14:03:02.604Z,16.25
2024-03-26T14:04:24.478Z,16.27
2024-03-26T14:05:45.490Z,16.46
2024-03-26T14:07:07.546Z,16.24
2024-03-26T14:08:28.324Z,16.04
2024-03-26T14:09:49.769Z,16.48
2024-03-26T14:11:11.062Z,16.64
2024-03-26T14:12:32.524Z,16.16
2024-03-26T14:13:53.910Z,16.21
2024-03-26T14:15:15.781Z,15.12
2024-03-26T14:16:36.990Z,15.31
2024-03-26T14:17:59.397Z,15.50
2024-03-26T14:19:20.613Z,15.16
2024-03-26T14:20:41.799Z,15.32
2024-03-26T14:22:02.605Z,15.54
2024-03-26T14:23:24.435Z,15.72
2024-03-26T14:24:46.206Z,16.23
2024-03-26T14:26:07.266Z,15.96
2024-03-26T14:27:27.914Z,16.27
2024-03-26T14:28:48.771Z,16.50
2024-03-26T14:30:09.673Z,16.19
2024-03-26T14:31:31.123Z,16.55
2024-03-26T14:32:51.802Z,15.89
2024-03-26T14:34:13.564Z,16.65
2024-03-26T14:35:36.153Z,16.67
2024-03-26T14:36:57.740Z,17.30
2024-03-26T14:38:19.289Z,16.99
2024-03-26T14:39:40.673Z,17.30
2024-03-26T14:41:00.898Z,18.18
2024-03-26T14:42:22.729Z,18.77
2024-03-26T14:43:44.258Z,18.89
2024-03-26T14:45:06.257Z,18.88
2024-03-26T14:46:26.437Z,18.12
2024-03-26T14:47:50.706Z,18.65
2024-03-26T14:49:11.792Z,18.37
2024-03-26T14:50:33.423Z,18.06
2024-03-26T14:51:53.021Z,18.24
2024-03-26T14:53:13.788Z,18.14
2024-03-26T14:54:34.095Z,17.86
2024-03-26T14:55:55.964Z,17.61
2024-03-26T14:57:18.292Z,18.57
2024-03-26T14:58:39.220Z,17.96
2024-03-26T14:59:59.801Z,18.33
2024-03-26T15:01:22.193Z,18.01
2024-03-26T15:02:44.170Z,17.85
2024-03-26T15:04:05.785Z,17.59
2024-03-26T15:05:26.065Z,17.35
2024-03-26T15:06:47.322Z,17.52
2024-03-26T15:08:08.747Z,17.53
2024-03-26T15:09:28.808Z,17.96
2024-03-26T15:12:10.815Z,18.37
2024-03-26T15:13:31.186Z,18.59
2024-03-26T15:14:53.913Z,18.83
2024-03-26T15:16:16.318Z,19.35
2024-03-26T15:17:36.716Z,19.58
2024-03-26T15:18:57.027Z,20.15
2024-03-26T15:20:19.418Z,19.88
2024-03-26T15:21:40.160Z,20.14
2024-03-26T15:23:02.711Z,20.61
2024-03-26T15:24:23.718Z,20.66
2024-03-26T15:25:48.262Z,20.80
2024-03-26T15:27:16.562Z,21.71
2024-03-26T15:28:55.773Z,21.35
2024-03-26T15:30:35.409Z,21.04
2024-03-26T15:32:01.944Z,21.17
2024-03-26T15:33:23.734Z,22.07
2024-03-26T15:34:45.383Z,21.91
2024-03-26T15:36:06.859Z,21.97
2024-03-26T15:37:27.668Z,22.19
2024-03-26T15:38:48.163Z,22.23
2024-03-26T15:40:10.245Z,22.21
2024-03-26T15:41:31.134Z,22.52
2024-03-26T15:42:52.315Z,22.32
2024-03-26T15:44:13.620Z,22.11
2024-03-26T15:45:34.865Z,22.47
2024-03-26T15:46:56.066Z,22.93
2024-03-26T15:48:18.230Z,22.99
2024-03-26T15:49:39.326Z,22.83
2024-03-26T15:51:00.970Z,23.06
2024-03-26T15:52:22.780Z,22.84
2024-03-26T15:53:44.303Z,22.56
2024-03-26T15:55:05.808Z,22.90
2024-03-26T15:56:26.644Z,23.50
2024-03-26T15:57:48.195Z,23.14
2024-03-26T15:59:14.520Z,23.08
2024-03-26T16:00:36.802Z,22.85
2024-03-26T16:01:59.302Z,22.85
2024-03-26T16:03:22.614Z,22.74
2024-03-26T16:04:43.716Z,23.05
2024-03-26T16:06:08.343Z,23.68
2024-03-26T16:07:29.866Z,23.62
2024-03-26T16:08:50.704Z,23.80
2024-03-26T16:10:19.971Z,23.54
2024-03-26T16:11:52.166Z,23.97
2024-03-26T16:13:14.291Z,23.75
2024-03-26T16:14:35.997Z,23.97
2024-03-26T16:15:57.885Z,24.08
2024-03-26T16:17:19.659Z,24.88
2024-03-26T16:18:41.262Z,24.71
2024-03-26T16:20:03.811Z,24.85
2024-03-26T16:21:25.622Z,25.47
2024-03-26T16:22:46.347Z,25.54
2024-03-26T16:24:08.821Z,26.32
2024-03-26T16:25:30.630Z,26.24
2024-03-26T16:26:51.355Z,26.32
2024-03-26T16:28:12.931Z,26.15
2024-03-26T16:29:33.333Z,26.53
2024-03-26T16:30:55.370Z,25.85
2024-03-26T16:32:18.126Z,25.64
2024-03-26T16:33:38.008Z,25.43
2024-03-26T16:34:59.217Z,25.82
2024-03-26T16:36:20.364Z,25.98
2024-03-26T16:37:41.256Z,26.37
2024-03-26T16:39:02.726Z,25.92
2024-03-26T16:40:24.520Z,27.19
2024-03-26T16:41:44.899Z,27.18
2024-03-26T16:43:06.407Z,27.54
2024-03-26T16:44:26.387Z,28.42
2024-03-26T16:45:48.110Z,28.30
2024-03-26T16:47:09.557Z,28.51
2024-03-26T16:48:31.191Z,28.07
2024-03-26T16:49:52.290Z,28.07
2024-03-26T16:51:14.407Z,28.39
2024-03-26T16:52:50.098Z,28.36
2024-03-26T16:56:20.631Z,29.98
2024-03-26T16:58:20.291Z,30.04
2024-03-26T17:01:54.437Z,30.48
2024-03-26T17:04:12.242Z,30.36
2024-03-26T17:05:52.689Z,30.25
2024-03-26T17:07:25.409Z,31.21
2024-03-26T17:08:45.563Z,31.20
2024-03-26T17:10:48.960Z,30.56
2024-03-26T17:12:15.069Z,31.39
2024-03-26T17:13:41.073Z,30.94
2024-03-26T17:15:04.964Z,31.28
2024-03-26T17:16:54.880Z,31.95
2024-03-26T17:18:20.316Z,31.99
2024-03-26T17:19:44.151Z,31.79
2024-03-26T17:21:04.279Z,32.37
2024-03-26T17:23:12.695Z,32.74
2024-03-26T17:24:37.048Z,32.88
2024-03-26T17:26:04.492Z,32.82
2024-03-26T17:27:54.127Z,33.05
2024-03-26T17:29:40.192Z,33.54
2024-03-26T17:31:29.229Z,32.82
2024-03-26T17:35:47.490Z,34.10
2024-03-26T17:37:16.482Z,34.33
2024-03-26T17:38:41.458Z,34.18
2024-03-26T17:40:19.694Z,33.65
2024-03-26T17:44:36.810Z,34.16
2024-03-26T17:45:58.000Z,34.49
2024-03-26T17:47:30.069Z,34.39
2024-03-26T17:49:06.851Z,34.89
2024-03-26T17:50:27.908Z,35.79
2024-03-26T17:52:06.975Z,35.04
2024-03-26T17:53:45.448Z,35.87
2024-03-26T17:55:09.104Z,35.47
2024-03-26T17:56:56.306Z,35.05
2024-03-26T17:58:24.716Z,35.51
2024-03-26T17:59:58.917Z,35.58
2024-03-26T18:01:35.619Z,36.53
2024-03-26T18:03:23.924Z,36.84
2024-03-26T18:05:12.986Z,35.92
2024-03-26T18:06:33.011Z,35.83
2024-03-26T18:07:53.956Z,35.77
2024-03-26T18:09:19.977Z,36.36
2024-03-26T18:10:43.554Z,36.90
2024-03-26T18:12:13.460Z,35.82
2024-03-26T18:13:35.566Z,36.07
2024-03-26T18:15:10.800Z,36.58
2024-03-26T18:16:34.768Z,37.28
2024-03-26T18:17:58.209Z,37.63
2024-03-26T18:19:39.487Z,37.35
2024-03-26T18:21:01.092Z,38.08
2024-03-26T18:22:22.217Z,36.95
2024-03-26T18:23:49.255Z,37.30
2024-03-26T18:25:37.535Z,37.35
2024-03-26T18:27:07.553Z,37.34
2024-03-26T18:28:32.587Z,37.81
2024-03-26T18:30:46.977Z,36.98
2024-03-26T18:31:47.162Z,38.22
2024-03-26T18:33:14.282Z,37.73
2024-03-26T18:34:40.815Z,37.99
2024-03-26T18:36:19.109Z,37.95
2024-03-26T18:38:05.357Z,39.04
2024-03-26T18:39:27.454Z,38.07
2024-03-26T18:41:04.305Z,37.64
2024-03-26T18:42:44.322Z,38.58
2024-03-26T18:44:20.930Z,38.98
2024-03-26T18:45:42.761Z,38.81
2024-03-26T18:47:14.880Z,38.62
2024-03-26T18:51:14.083Z,38.79
2024-03-26T18:53:17.157Z,38.41
2024-03-26T18:58:02.061Z,39.15
2024-03-26T18:59:39.962Z,39.15
2024-03-26T19:03:22.158Z,39.38
2024-03-26T19:05:28.538Z,39.50
2024-03-26T19:07:14.295Z,39.34
2024-03-26T19:08:40.004Z,39.17
2024-03-26T19:10:19.834Z,40.06
2024-03-26T19:12:38.649Z,38.65
2024-03-26T19:14:43.596Z,39.83
2024-03-26T19:16:14.965Z,39.81
2024-03-26T19:17:38.372Z,38.84
2024-03-26T19:19:11.313Z,39.04
2024-03-26T19:20:34.976Z,40.14
2024-03-26T19:22:01.802Z,39.24
2024-03-26T19:23:25.318Z,39.68